Detall de PIREP

Printer-friendly versionPDF version

[2009/10/28 21:41:00]
Flight IATA:CT2304
Pilot Number:026
Company ICAO:CAT
Aircraft Type:DC85/A
PAX:136
Departing Airport: LIEA
Destination Airport: LIBC
Alternate Airport:LIBD
Online: VATSIM
Route:BAREN UM601 CRN
Flight Level:FL350
No Slew and time accel
No pause
Crash detect
Detect pilot in Cockpit between each 30 and 45 minutes
21:41 Zero fuel Weight: 240998 Lbs, Fuel Weight: 30000 Lbs
21:41 VATSIM:LIEA 282120Z 06002KT 1500 MIFG NSC 12/11 Q1020
21:41 VATSIM:LIBC 282050Z 36007KT CAVOK 13/10 Q1017 RMK VIS MIN 9999
21:42 VOICE CATALONIAN
21:56 Parking Brakes off
22:04 Take-off
22:04 Take off Weight: 269568 Lbs
22:04 Wind: 040º @ 002 Knots Heading: 205º
22:04 POS N40º 37´ 26´´ E008º 17´ 10´´
22:04 Flaps:2 at 162 Knots
22:04 Gear Up: 163 Knots
22:05 Flaps:1 at 161 Knots
22:09 Flaps:0 at 203 Knots
22:19 Wind:318º@009 Knots Heading: 076º Ground Speed: 450 Knots Alt
itude 24238 ft
22:33 TOC
22:33 Fuel Weight: 19199 Lb
22:34 Wind:311º@008 Knots Heading: 102º Ground Speed: 469 Knots Altitude 35157 ft
22:49 Wind:333º@005 Knots Heading: 108º Ground Speed: 478 Knots Altitude 35131 ft
22:57 TOD
22:57 Fuel Weight: 13774 Lb
23:04 Wind:278º@020 Knots Heading: 139º Ground Speed: 414 Knots Altitude 23638 ft
23:19 Wind:359º@014 Knots Heading: 075º Ground Speed: 252 Knots Altitude 5734 ft
23:25 Flaps:1 at 218 Knots
23:25 Flaps:2 at 215 Knots
23:25 Gear Down: 215 Knots
23:25 Flaps:3 at 214 Knots
23:26 Flaps:4 at 195 Knots
23:26 Flaps:5 at 153 Knots
23:26 TouchDown:Rate -995 ft/min Speed: 139 Knots
23:27 Land
23:27 Wind:358º@007 Knots
23:27 Heading: 336º
23:27 Flight Duration: 01:23
23:27 Landing Weight: 252259 Lbs
23:27 POS N38º 59´ 51´´ E017º 04´ 46´´
23:31 Parking brakes on
23:31 Block to Block Duration: 01:35
23:31 Final F
uel: 11091 Lbls
23:31 Spent Fuel: 18908 Lbls
23:31 Flight Length: 525 NM
23:31 TOD Land Length: 156 NM

Exportar CSV

Powered by Drupal - Modified by Danger4k